Time;durP1;ratioP1;P1;durP2;ratioP2;P2;SDS_P1;SDS_P2;PMS_P1;PMS_P2;Temp;Humidity;BMP_temperature;BMP_pressure;BME280_temperature;BME280_humidity;BME280_pressure;Samples;Min_cycle;Max_cycle;Signal;HPM_P1;HPM_P2
2022/12/18 00:01:19;;;;;;;12.32;11.02;;;17.00;46.20;;;;;;5051928;28;20625;-60
2022/12/18 00:03:45;;;;;;;14.02;12.43;;;17.00;46.20;;;;;;5053096;28;20266;-60
2022/12/18 00:06:11;;;;;;;12.05;10.73;;;16.90;46.20;;;;;;5052588;28;20258;-60
2022/12/18 00:08:37;;;;;;;12.13;10.88;;;16.90;46.30;;;;;;5052944;28;20250;-60
2022/12/18 00:11:06;;;;;;;12.98;11.52;;;16.90;46.30;;;;;;5053041;28;20594;-61
2022/12/18 00:13:32;;;;;;;13.07;11.50;;;16.90;46.40;;;;;;5051786;28;20233;-61
2022/12/18 00:16:02;;;;;;;13.85;11.57;;;16.90;46.40;;;;;;5052965;28;20214;-61
2022/12/18 00:18:27;;;;;;;13.32;11.93;;;16.80;46.40;;;;;;5052784;28;20663;-61
2022/12/18 00:20:53;;;;;;;12.20;11.00;;;16.80;46.40;;;;;;5051768;28;20221;-61
2022/12/18 00:23:18;;;;;;;12.55;10.63;;;16.80;46.50;;;;;;5052936;28;20202;-61
2022/12/18 00:25:44;;;;;;;12.63;11.25;;;16.70;46.50;;;;;;5052584;28;20206;-61
2022/12/18 00:28:09;;;;;;;12.68;10.85;;;16.70;46.50;;;;;;5052076;28;20256;-60
2022/12/18 00:30:35;;;;;;;12.23;10.95;;;16.70;46.50;;;;;;5052467;28;20255;-60
2022/12/18 00:33:00;;;;;;;12.13;10.82;;;16.70;46.60;;;;;;5052865;28;20536;-60
2022/12/18 00:35:26;;;;;;;12.43;11.23;;;16.70;46.60;;;;;;5051973;28;20818;-61
2022/12/18 00:37:51;;;;;;;12.93;11.25;;;16.60;46.50;;;;;;5052629;28;20258;-61
2022/12/18 00:40:17;;;;;;;12.20;10.73;;;16.60;46.60;;;;;;5052551;28;20566;-61
2022/12/18 00:42:58;;;;;;;13.05;11.27;;;16.60;46.60;;;;;;5051817;28;20654;-61
2022/12/18 00:45:27;;;;;;;12.38;11.07;;;16.60;46.60;;;;;;5053000;28;20263;-61
2022/12/18 00:47:53;;;;;;;12.13;10.95;;;16.60;46.70;;;;;;5052628;28;20175;-62
2022/12/18 00:50:19;;;;;;;12.18;10.95;;;16.60;46.70;;;;;;5052002;28;20186;-60
2022/12/18 00:52:44;;;;;;;13.00;11.70;;;16.60;46.70;;;;;;5052295;28;20171;-60
2022/12/18 00:55:10;;;;;;;12.60;11.38;;;16.60;46.80;;;;;;5051625;28;20215;-61
2022/12/18 00:57:35;;;;;;;12.93;11.63;;;16.50;46.70;;;;;;5051961;28;20182;-60
2022/12/18 01:00:01;;;;;;;13.20;11.80;;;16.50;46.70;;;;;;5052716;28;20182;-60
2022/12/18 01:02:27;;;;;;;12.88;11.57;;;16.50;46.70;;;;;;5051918;28;20175;-60
2022/12/18 01:04:52;;;;;;;12.15;10.95;;;16.50;46.70;;;;;;5052255;28;20687;-60
2022/12/18 01:07:18;;;;;;;12.52;11.23;;;16.40;46.70;;;;;;5052414;28;20622;-60
2022/12/18 01:09:43;;;;;;;12.13;10.90;;;16.50;46.70;;;;;;5051323;28;20175;-61
2022/12/18 01:12:09;;;;;;;12.55;11.25;;;16.40;47.40;;;;;;5052484;28;20225;-61
2022/12/18 01:14:34;;;;;;;11.77;10.60;;;16.40;46.70;;;;;;5055575;28;20307;-61
2022/12/18 01:17:02;;;;;;;13.57;11.55;;;16.40;46.80;;;;;;5055538;28;20172;-61
2022/12/18 01:19:27;;;;;;;13.15;11.75;;;16.40;46.80;;;;;;5056283;28;20183;-61
2022/12/18 01:21:53;;;;;;;13.02;11.73;;;16.40;46.80;;;;;;5055714;28;20613;-61
2022/12/18 01:24:19;;;;;;;11.77;10.55;;;16.40;46.80;;;;;;5055238;28;20233;-61
2022/12/18 01:26:45;;;;;;;12.80;11.40;;;16.30;46.70;;;;;;5055645;28;20225;-60
2022/12/18 01:29:10;;;;;;;13.18;11.77;;;16.30;46.80;;;;;;5056111;28;20183;-60
2022/12/18 01:31:36;;;;;;;13.40;11.85;;;16.30;46.80;;;;;;5055158;28;20167;-60
2022/12/18 01:34:02;;;;;;;12.27;10.93;;;16.30;46.70;;;;;;5055801;28;20167;-60
2022/12/18 01:36:32;;;;;;;11.10;10.00;;;16.30;46.80;;;;;;5055835;28;20257;-61
2022/12/18 01:38:59;;;;;;;13.10;10.75;;;16.30;46.80;;;;;;5055184;28;20598;-61
2022/12/18 01:42:01;;;;;;;12.85;11.55;;;16.20;46.70;;;;;;5055564;28;20189;-61
2022/12/18 01:44:50;;;;;;;13.40;12.00;;;16.20;46.80;;;;;;5055260;28;20544;-61
2022/12/18 01:47:21;;;;;;;11.75;10.65;;;16.20;46.80;;;;;;5055640;28;20249;-61
2022/12/18 01:49:46;;;;;;;12.95;11.50;;;16.20;46.70;;;;;;5055392;28;20178;-60
2022/12/18 01:52:12;;;;;;;12.02;10.70;;;16.20;46.70;;;;;;5054959;28;20179;-60
2022/12/18 01:54:37;;;;;;;13.10;11.52;;;16.20;46.70;;;;;;5055143;28;20644;-61
2022/12/18 01:57:03;;;;;;;12.52;11.27;;;16.20;46.80;;;;;;5055382;28;20668;-60
2022/12/18 01:59:28;;;;;;;12.18;10.98;;;16.10;46.70;;;;;;5054759;28;20175;-60
2022/12/18 02:01:54;;;;;;;11.63;10.43;;;16.10;46.70;;;;;;5053908;28;20171;-60
2022/12/18 02:04:24;;;;;;;11.63;10.52;;;16.10;46.80;;;;;;5055244;28;20630;-60
2022/12/18 02:07:24;;;;;;;12.63;11.32;;;16.10;46.80;;;;;;5054147;28;20179;-60
2022/12/18 02:10:04;;;;;;;11.98;10.77;;;16.10;46.80;;;;;;5053670;28;20210;-60
2022/12/18 02:12:57;;;;;;;12.57;11.27;;;16.00;46.80;;;;;;5054336;28;20262;-60
2022/12/18 02:15:26;;;;;;;11.80;10.60;;;16.00;47.40;;;;;;5053991;28;20231;-61
2022/12/18 02:18:01;;;;;;;12.52;11.30;;;16.00;46.80;;;;;;5054936;28;20171;-61
2022/12/18 02:20:35;;;;;;;12.30;11.10;;;16.00;46.80;;;;;;5053182;28;20262;-61
2022/12/18 02:23:20;;;;;;;12.40;11.20;;;16.00;46.80;;;;;;5053509;28;20189;-60
2022/12/18 02:26:06;;;;;;;12.38;10.98;;;16.00;46.80;;;;;;5053671;28;20313;-60
2022/12/18 02:28:34;;;;;;;12.63;11.43;;;16.00;46.80;;;;;;5052708;28;20175;-60
2022/12/18 02:31:01;;;;;;;12.50;11.23;;;16.00;46.90;;;;;;5053651;28;20202;-60
2022/12/18 02:33:27;;;;;;;11.45;10.25;;;15.90;46.90;;;;;;5053456;28;20532;-60
2022/12/18 02:35:53;;;;;;;12.45;11.13;;;15.90;46.90;;;;;;5051993;28;20681;-61
2022/12/18 02:38:18;;;;;;;12.02;10.57;;;15.90;46.90;;;;;;5053681;28;20258;-61
2022/12/18 02:40:44;;;;;;;11.80;10.60;;;15.90;46.90;;;;;;5052468;28;20634;-61
2022/12/18 02:43:11;;;;;;;11.70;10.57;;;15.90;46.90;;;;;;5053413;28;20163;-61
2022/12/18 02:45:53;;;;;;;12.20;11.00;;;15.90;46.90;;;;;;5054333;28;20524;-60
2022/12/18 02:48:19;;;;;;;12.27;11.07;;;15.90;46.90;;;;;;5054067;28;20171;-60
2022/12/18 02:50:48;;;;;;;11.32;10.10;;;15.80;46.90;;;;;;5053151;28;20190;-60
2022/12/18 02:53:36;;;;;;;12.13;10.90;;;15.80;46.90;;;;;;5053434;28;20193;-60
2022/12/18 02:56:25;;;;;;;12.55;11.00;;;15.80;46.90;;;;;;5052172;28;20553;-60
2022/12/18 02:59:00;;;;;;;12.90;11.18;;;15.80;46.90;;;;;;5052824;28;21008;-60
2022/12/18 03:01:31;;;;;;;11.73;10.52;;;15.80;46.90;;;;;;5053009;28;20177;-60
2022/12/18 03:03:59;;;;;;;12.20;11.07;;;15.80;46.90;;;;;;5052368;28;20183;-60
2022/12/18 03:06:29;;;;;;;11.63;10.45;;;15.80;46.90;;;;;;5053116;28;20266;-60
2022/12/18 03:08:58;;;;;;;12.52;11.23;;;15.70;46.90;;;;;;5051957;28;20282;-60
2022/12/18 03:12:22;;;;;;;12.65;11.35;;;15.70;46.90;;;;;;5052773;28;20226;-60
2022/12/18 03:14:09;;;;;;;11.55;10.40;;;15.70;46.90;;;;;;5052774;28;20241;-61
2022/12/18 03:16:41;;;;;;;11.82;10.73;;;15.70;46.90;;;;;;5051676;28;20175;-63
2022/12/18 03:19:09;;;;;;;11.52;10.32;;;15.70;46.90;;;;;;5052360;28;20184;-60
2022/12/18 03:21:40;;;;;;;11.73;10.52;;;15.70;46.90;;;;;;5052436;28;20175;-60
2022/12/18 03:24:07;;;;;;;11.27;10.18;;;15.70;46.90;;;;;;5051794;28;20657;-60
2022/12/18 03:26:32;;;;;;;11.00;9.90;;;15.60;46.80;;;;;;5052431;28;20327;-59
2022/12/18 03:29:02;;;;;;;11.93;10.73;;;15.60;46.80;;;;;;5052563;28;20641;-59
2022/12/18 03:31:28;;;;;;;10.82;9.75;;;15.60;46.80;;;;;;5051766;28;20253;-59
2022/12/18 03:34:04;;;;;;;12.25;10.88;;;15.60;46.80;;;;;;5052097;28;20175;-60
2022/12/18 03:36:33;;;;;;;11.20;10.10;;;15.60;46.90;;;;;;5051298;28;20637;-60
2022/12/18 03:38:58;;;;;;;11.88;10.68;;;15.60;46.90;;;;;;5052945;28;20520;-60
2022/12/18 03:41:29;;;;;;;11.27;10.18;;;15.60;46.90;;;;;;5052310;28;20649;-60
2022/12/18 03:44:17;;;;;;;11.63;10.43;;;15.50;46.90;;;;;;5051324;28;20171;-60
2022/12/18 03:46:54;;;;;;;11.98;10.82;;;15.50;46.90;;;;;;5052150;28;20171;-60
2022/12/18 03:49:31;;;;;;;12.38;10.68;;;15.50;46.90;;;;;;5052379;28;20225;-59
2022/12/18 03:52:09;;;;;;;11.90;10.80;;;15.50;46.90;;;;;;5051542;28;20207;-59
2022/12/18 03:54:34;;;;;;;12.65;11.35;;;15.50;47.00;;;;;;5051557;28;20216;-60
2022/12/18 03:57:10;;;;;;;12.10;10.90;;;15.50;46.90;;;;;;5052063;28;20250;-60
2022/12/18 03:59:35;;;;;;;10.88;9.88;;;15.50;46.90;;;;;;5051038;28;20178;-59
2022/12/18 04:02:01;;;;;;;11.73;10.52;;;15.50;46.90;;;;;;5035417;28;20170;-59
2022/12/18 04:04:27;;;;;;;11.90;10.80;;;15.40;46.90;;;;;;5051927;28;20630;-60
2022/12/18 04:06:52;;;;;;;12.90;11.60;;;15.40;46.90;;;;;;5050769;28;20178;-59
2022/12/18 04:09:18;;;;;;;10.95;9.85;;;15.40;46.90;;;;;;5051878;28;20262;-60
2022/12/18 04:11:44;;;;;;;12.25;11.07;;;15.40;47.00;;;;;;5052902;28;20186;-60
2022/12/18 04:14:09;;;;;;;12.27;11.07;;;15.40;47.00;;;;;;5050768;28;20222;-60
2022/12/18 04:16:35;;;;;;;10.65;9.60;;;15.40;47.00;;;;;;5052850;28;20548;-60
2022/12/18 04:19:00;;;;;;;11.82;10.73;;;15.30;46.90;;;;;;5052324;28;20175;-60
2022/12/18 04:21:26;;;;;;;11.15;10.07;;;15.40;47.00;;;;;;5052489;28;20186;-60
2022/12/18 04:23:51;;;;;;;10.75;9.65;;;15.30;46.90;;;;;;5052685;28;20183;-60
2022/12/18 04:26:17;;;;;;;10.90;9.85;;;15.30;47.00;;;;;;5052307;28;20171;-59
2022/12/18 04:28:42;;;;;;;11.23;10.02;;;15.30;46.90;;;;;;5052439;28;20629;-59
2022/12/18 04:31:08;;;;;;;11.93;10.73;;;15.30;46.90;;;;;;5052694;28;20175;-59
2022/12/18 04:33:34;;;;;;;11.73;10.60;;;15.30;46.90;;;;;;5051792;28;20178;-59
2022/12/18 04:35:59;;;;;;;11.18;10.07;;;15.30;46.90;;;;;;5052786;28;20608;-60
2022/12/18 04:38:25;;;;;;;11.13;10.02;;;15.30;46.90;;;;;;5052531;28;20519;-60
2022/12/18 04:40:50;;;;;;;11.32;10.23;;;15.20;46.90;;;;;;5051569;28;20179;-60
2022/12/18 04:43:16;;;;;;;10.77;9.77;;;15.20;46.90;;;;;;5052536;28;20233;-60
2022/12/18 04:45:41;;;;;;;11.05;9.90;;;15.20;46.80;;;;;;5052380;28;20175;-60
2022/12/18 04:48:07;;;;;;;12.35;10.40;;;15.20;46.90;;;;;;5055189;28;20229;-60
2022/12/18 04:50:32;;;;;;;11.80;10.70;;;15.20;46.90;;;;;;5056485;28;20221;-60
2022/12/18 04:52:58;;;;;;;10.95;9.88;;;15.20;46.90;;;;;;5056517;28;20233;-60
2022/12/18 04:55:26;;;;;;;11.32;10.10;;;15.20;46.90;;;;;;5056092;28;20219;-60
2022/12/18 04:57:52;;;;;;;11.15;10.02;;;15.20;46.90;;;;;;5056467;28;20518;-60
2022/12/18 05:00:18;;;;;;;11.00;10.00;;;15.10;46.80;;;;;;5056746;28;20689;-59
2022/12/18 05:02:43;;;;;;;10.10;9.18;;;15.10;46.90;;;;;;5055395;28;20521;-59
2022/12/18 05:05:09;;;;;;;10.55;9.60;;;15.10;46.80;;;;;;5056625;28;20179;-59
2022/12/18 05:07:34;;;;;;;10.57;9.48;;;15.20;46.90;;;;;;5056029;28;20583;-59
2022/12/18 05:10:00;;;;;;;11.27;10.23;;;15.10;46.90;;;;;;5055832;28;20209;-60
2022/12/18 05:12:25;;;;;;;10.30;9.25;;;15.10;46.90;;;;;;5056072;28;20214;-60
2022/12/18 05:14:51;;;;;;;10.65;9.55;;;15.10;46.80;;;;;;5055773;28;20238;-60
2022/12/18 05:17:16;;;;;;;11.13;10.05;;;15.10;46.80;;;;;;5055691;28;20176;-60
2022/12/18 05:19:42;;;;;;;10.18;9.23;;;15.00;46.80;;;;;;5055919;28;20539;-60
2022/12/18 05:22:08;;;;;;;10.95;9.93;;;15.10;46.80;;;;;;5056001;28;20333;-60
2022/12/18 05:24:33;;;;;;;10.50;9.40;;;15.00;47.40;;;;;;5054717;28;20183;-60
2022/12/18 05:26:59;;;;;;;10.68;9.68;;;15.10;46.80;;;;;;5056273;28;20257;-59
2022/12/18 05:29:24;;;;;;;10.20;9.20;;;15.00;46.80;;;;;;5055373;28;20175;-59
2022/12/18 05:31:50;;;;;;;10.38;9.48;;;15.00;46.80;;;;;;5055433;28;20715;-59
2022/12/18 05:34:15;;;;;;;11.35;10.18;;;15.00;46.80;;;;;;5055544;28;20265;-59
2022/12/18 05:36:41;;;;;;;10.00;8.95;;;15.00;46.80;;;;;;5054716;28;20212;-60
2022/12/18 05:39:07;;;;;;;9.98;8.85;;;15.00;46.80;;;;;;5055964;28;20178;-60
2022/12/18 05:41:32;;;;;;;9.38;8.57;;;14.90;46.80;;;;;;5055648;28;20206;-60
2022/12/18 05:43:58;;;;;;;10.75;9.38;;;14.90;46.80;;;;;;5055082;28;20341;-60
2022/12/18 05:46:24;;;;;;;10.02;8.98;;;14.90;46.80;;;;;;5055733;28;20278;-60
2022/12/18 05:48:50;;;;;;;10.13;9.13;;;14.90;46.70;;;;;;5055332;28;20182;-60
2022/12/18 05:51:17;;;;;;;9.32;8.43;;;14.90;46.80;;;;;;5054805;28;20210;-59
2022/12/18 05:53:43;;;;;;;9.20;8.35;;;14.90;46.80;;;;;;5055579;28;20186;-59
2022/12/18 05:56:11;;;;;;;9.52;8.60;;;14.90;46.80;;;;;;5055390;28;20214;-60
2022/12/18 05:58:37;;;;;;;8.88;8.07;;;14.90;46.90;;;;;;5053478;28;20651;-60
2022/12/18 06:01:11;;;;;;;9.40;8.50;;;14.90;46.90;;;;;;5055343;28;20180;-59
2022/12/18 06:03:37;;;;;;;9.07;8.20;;;14.90;46.90;;;;;;5055174;28;20223;-59
2022/12/18 06:06:02;;;;;;;9.38;8.48;;;14.90;46.90;;;;;;5054780;28;20175;-59
2022/12/18 06:08:28;;;;;;;9.63;8.68;;;15.00;46.80;;;;;;5055408;28;20207;-60
2022/12/18 06:10:54;;;;;;;8.90;8.00;;;15.10;46.70;;;;;;5054838;28;20163;-60
2022/12/18 06:13:20;;;;;;;8.98;8.07;;;15.10;46.60;;;;;;5054359;28;20227;-60
2022/12/18 06:15:45;;;;;;;8.63;7.82;;;15.20;46.80;;;;;;5054783;28;20215;-60
2022/12/18 06:18:11;;;;;;;8.77;7.95;;;15.20;47.00;;;;;;5055088;28;20549;-60
2022/12/18 06:20:39;;;;;;;8.35;7.55;;;15.40;46.90;;;;;;5053931;28;20557;-60
2022/12/18 06:23:05;;;;;;;9.30;7.80;;;15.50;46.80;;;;;;5055110;28;20593;-60
2022/12/18 06:25:30;;;;;;;8.45;7.65;;;15.60;46.60;;;;;;5054916;28;20170;-60
2022/12/18 06:27:56;;;;;;;8.15;7.35;;;15.70;46.30;;;;;;5054373;28;20176;-59
2022/12/18 06:30:22;;;;;;;7.97;7.20;;;15.90;46.10;;;;;;5054570;28;20656;-59
2022/12/18 06:32:48;;;;;;;7.75;7.05;;;16.00;45.80;;;;;;5053741;28;20222;-59
2022/12/18 06:35:14;;;;;;;8.20;7.40;;;16.00;45.70;;;;;;5054653;28;20210;-60
2022/12/18 06:37:39;;;;;;;7.30;6.60;;;16.10;45.70;;;;;;5054355;28;20262;-60
2022/12/18 06:40:06;;;;;;;7.82;7.03;;;16.10;45.60;;;;;;5053958;28;20707;-60
2022/12/18 06:42:31;;;;;;;8.18;7.38;;;16.20;45.60;;;;;;5054381;28;20647;-60
2022/12/18 06:44:57;;;;;;;7.97;7.18;;;16.20;45.60;;;;;;5054578;28;20246;-60
2022/12/18 06:47:22;;;;;;;8.43;7.57;;;16.20;46.20;;;;;;5053794;28;20667;-60
2022/12/18 06:49:48;;;;;;;8.23;7.43;;;16.20;45.50;;;;;;5054306;28;20764;-60
2022/12/18 06:52:16;;;;;;;8.02;7.30;;;16.20;45.50;;;;;;5054583;28;20565;-60
2022/12/18 06:54:42;;;;;;;6.80;6.20;;;16.20;45.50;;;;;;5053002;28;20665;-60
2022/12/18 06:57:07;;;;;;;7.82;7.13;;;16.10;45.50;;;;;;5054486;28;20186;-61
2022/12/18 06:59:33;;;;;;;8.00;7.20;;;16.10;45.70;;;;;;5053997;28;20181;-60
2022/12/18 07:01:59;;;;;;;7.45;6.75;;;16.10;45.60;;;;;;5053513;28;20179;-59
2022/12/18 07:04:30;;;;;;;7.78;6.70;;;16.10;45.60;;;;;;5054146;28;20641;-60
2022/12/18 07:06:56;;;;;;;7.70;7.00;;;16.20;45.60;;;;;;5053975;28;20545;-60
2022/12/18 07:09:21;;;;;;;7.28;6.57;;;16.30;45.60;;;;;;5053031;28;20182;-59
2022/12/18 07:11:47;;;;;;;7.63;6.85;;;16.40;45.50;;;;;;5053610;28;20185;-60
2022/12/18 07:14:12;;;;;;;7.68;6.93;;;16.60;45.40;;;;;;5053748;28;20218;-60
2022/12/18 07:16:38;;;;;;;7.47;6.78;;;16.80;44.90;;;;;;5052798;28;20183;-61
2022/12/18 07:19:03;;;;;;;7.32;6.53;;;17.10;44.50;;;;;;5054016;28;20167;-60
2022/12/18 07:21:29;;;;;;;7.30;6.60;;;17.30;44.20;;;;;;5053812;28;20681;-60
2022/12/18 07:23:54;;;;;;;7.03;6.43;;;17.40;44.00;;;;;;5052686;28;20304;-60
2022/12/18 07:26:20;;;;;;;7.32;6.63;;;17.60;43.80;;;;;;5053896;28;20269;-60
2022/12/18 07:28:46;;;;;;;7.03;6.32;;;17.50;43.90;;;;;;5053267;28;20258;-59
2022/12/18 07:31:15;;;;;;;7.22;6.53;;;17.50;44.00;;;;;;5053013;28;20199;-60
2022/12/18 07:33:40;;;;;;;6.60;6.00;;;17.50;44.60;;;;;;5053540;28;20245;-60
2022/12/18 07:36:07;;;;;;;7.00;6.40;;;17.50;43.90;;;;;;5052888;28;20210;-61
2022/12/18 07:38:33;;;;;;;7.18;6.47;;;17.50;43.90;;;;;;5053395;28;20179;-61
2022/12/18 07:41:08;;;;;;;6.45;5.85;;;17.60;43.90;;;;;;5053626;28;20179;-62
2022/12/18 07:43:34;;;;;;;7.35;6.65;;;17.50;43.90;;;;;;5052368;28;20182;-61
2022/12/18 07:46:00;;;;;;;6.82;6.22;;;17.50;43.90;;;;;;5053386;28;20221;-61
2022/12/18 07:48:26;;;;;;;7.20;6.50;;;17.50;44.10;;;;;;5053529;28;20198;-60
2022/12/18 07:50:51;;;;;;;7.40;6.63;;;17.50;44.10;;;;;;5052474;28;20232;-60
2022/12/18 07:53:17;;;;;;;6.85;6.15;;;17.50;44.10;;;;;;5053108;28;20205;-60
2022/12/18 07:55:42;;;;;;;6.25;5.65;;;17.40;44.00;;;;;;5052951;28;20239;-60
2022/12/18 07:58:08;;;;;;;7.22;6.53;;;17.40;44.20;;;;;;5052597;28;20199;-61
2022/12/18 08:00:34;;;;;;;6.95;6.35;;;17.20;44.30;;;;;;5052697;28;20186;-60
2022/12/18 08:02:59;;;;;;;5.75;5.25;;;17.20;44.50;;;;;;5053253;28;20270;-60
2022/12/18 08:05:25;;;;;;;6.40;5.80;;;17.20;44.60;;;;;;5052576;28;20175;-60
2022/12/18 08:07:50;;;;;;;6.50;5.90;;;17.20;44.60;;;;;;5052836;28;20175;-60
2022/12/18 08:10:16;;;;;;;6.65;5.93;;;17.30;44.50;;;;;;5053034;28;20258;-60
2022/12/18 08:12:42;;;;;;;6.28;5.68;;;17.30;44.40;;;;;;5051794;28;20179;-60
2022/12/18 08:15:08;;;;;;;5.50;5.00;;;17.30;44.50;;;;;;5052965;28;20211;-61
2022/12/18 08:17:33;;;;;;;6.57;5.97;;;17.30;44.50;;;;;;5052764;28;20178;-60
2022/12/18 08:19:59;;;;;;;6.47;5.85;;;17.30;44.40;;;;;;5052306;28;20179;-65
2022/12/18 08:22:24;;;;;;;7.22;6.13;;;17.20;44.60;;;;;;5052388;28;20167;-75
2022/12/18 08:24:50;;;;;;;6.57;5.97;;;17.20;44.70;;;;;;5052481;28;20187;-77
2022/12/18 08:27:15;;;;;;;6.93;6.28;;;17.20;44.70;;;;;;5052289;28;20535;-78
2022/12/18 08:29:41;;;;;;;6.72;6.03;;;17.30;44.60;;;;;;5052658;28;20254;-72
2022/12/18 08:32:06;;;;;;;7.22;5.82;;;17.30;44.80;;;;;;5056673;28;20602;-70
2022/12/18 08:34:32;;;;;;;6.10;5.30;;;17.30;44.70;;;;;;5055293;28;20198;-71
2022/12/18 08:36:57;;;;;;;8.27;6.22;;;17.20;44.80;;;;;;5070896;28;20174;-70
2022/12/18 08:39:23;;;;;;;6.10;5.50;;;17.20;44.90;;;;;;5068951;28;20163;-71
2022/12/18 08:44:37;;;;;;;7.30;6.13;;;17.30;45.00;;;;;;5052502;28;20190;-71
2022/12/18 08:44:41;;;;;;;6.28;5.68;;;17.30;45.00;;;;;;5052302;28;20187;-71
2022/12/18 08:47:06;;;;;;;7.32;6.00;;;17.40;44.80;;;;;;5052188;28;20254;-71
2022/12/18 08:49:32;;;;;;;6.55;5.93;;;17.40;44.80;;;;;;5068606;28;20700;-71
2022/12/18 08:51:58;;;;;;;7.47;6.05;;;17.40;44.90;;;;;;5072629;28;20170;-71
2022/12/18 08:54:24;;;;;;;6.78;5.68;;;17.40;44.90;;;;;;5071722;28;20175;-71
2022/12/18 08:56:49;;;;;;;8.02;6.22;;;17.40;44.90;;;;;;5072045;28;20221;-71
2022/12/18 08:59:18;;;;;;;6.13;5.50;;;17.30;45.00;;;;;;5072772;28;20179;-71
2022/12/18 09:01:44;;;;;;;6.93;5.65;;;17.40;45.10;;;;;;5071750;28;20174;-71
2022/12/18 09:04:09;;;;;;;6.47;5.78;;;17.40;45.00;;;;;;5072697;28;20167;-71
2022/12/18 09:06:35;;;;;;;6.78;6.07;;;17.30;45.00;;;;;;5056022;28;20206;-71
2022/12/18 09:09:00;;;;;;;6.13;5.55;;;17.40;45.10;;;;;;5051632;28;20254;-72
2022/12/18 09:11:27;;;;;;;6.05;4.80;;;17.30;45.10;;;;;;5052669;28;20266;-72
2022/12/18 09:13:53;;;;;;;6.68;5.57;;;17.30;45.10;;;;;;5051960;28;20219;-72
2022/12/18 09:16:19;;;;;;;5.90;5.30;;;17.40;45.10;;;;;;5051697;28;20215;-70
2022/12/18 09:18:45;;;;;;;6.53;4.97;;;17.30;45.10;;;;;;5051944;28;20575;-70
2022/12/18 09:21:15;;;;;;;5.93;5.43;;;17.40;45.10;;;;;;5052184;28;20205;-69
2022/12/18 09:23:40;;;;;;;6.13;5.28;;;17.40;45.10;;;;;;5051055;28;20175;-72
2022/12/18 09:26:06;;;;;;;6.90;4.68;;;17.40;45.20;;;;;;5052148;28;20168;-72
2022/12/18 09:28:32;;;;;;;6.30;5.25;;;17.40;45.10;;;;;;5051327;28;20186;-72
2022/12/18 09:30:57;;;;;;;6.30;5.15;;;17.40;45.10;;;;;;5052367;28;20171;-71
2022/12/18 09:33:23;;;;;;;5.97;5.38;;;17.30;45.20;;;;;;5052706;28;20167;-71
2022/12/18 09:35:48;;;;;;;5.32;4.82;;;17.40;45.20;;;;;;5054580;28;20590;-71
2022/12/18 09:38:15;;;;;;;5.38;4.88;;;17.40;45.20;;;;;;5055528;28;20174;-71
2022/12/18 09:40:47;;;;;;;6.00;5.20;;;17.40;45.30;;;;;;5071270;28;20269;-71
2022/12/18 09:43:18;;;;;;;5.90;5.32;;;17.30;45.30;;;;;;5073627;28;20637;-72
2022/12/18 09:45:46;;;;;;;5.57;4.85;;;17.40;45.30;;;;;;5071166;28;20239;-71
2022/12/18 09:48:19;;;;;;;6.30;5.25;;;17.40;45.30;;;;;;5054287;28;20186;-71
2022/12/18 09:50:44;;;;;;;5.60;5.10;;;17.40;45.30;;;;;;5053110;28;20186;-71
2022/12/18 09:53:14;;;;;;;6.57;5.28;;;17.30;45.30;;;;;;5055354;28;20171;-71
2022/12/18 09:55:41;;;;;;;5.00;4.50;;;17.30;45.30;;;;;;5054072;28;20219;-71
2022/12/18 09:58:13;;;;;;;5.22;4.50;;;17.30;45.30;;;;;;5053436;28;20642;-71
2022/12/18 10:00:38;;;;;;;4.85;4.40;;;17.40;45.40;;;;;;5053991;28;20186;-70
2022/12/18 10:03:12;;;;;;;5.53;5.00;;;17.30;45.40;;;;;;5055486;28;20175;-71
2022/12/18 10:05:42;;;;;;;5.22;4.65;;;17.40;45.50;;;;;;5053051;28;20547;-71
2022/12/18 10:08:19;;;;;;;4.70;4.30;;;17.40;45.50;;;;;;5054410;28;20182;-71
2022/12/18 10:10:57;;;;;;;5.47;4.97;;;17.40;45.40;;;;;;5053137;28;20175;-71
2022/12/18 10:13:48;;;;;;;5.88;5.05;;;17.30;45.40;;;;;;5053956;28;20375;-71
2022/12/18 10:16:29;;;;;;;5.10;4.43;;;17.30;45.50;;;;;;5054014;28;20225;-69
2022/12/18 10:19:18;;;;;;;5.20;4.70;;;17.40;45.50;;;;;;5052546;28;20666;-70
2022/12/18 10:21:54;;;;;;;5.82;4.85;;;17.40;45.50;;;;;;5053530;28;20630;-69
2022/12/18 10:24:43;;;;;;;5.30;4.60;;;17.40;45.50;;;;;;5053746;28;20185;-71
2022/12/18 10:27:15;;;;;;;5.15;4.65;;;17.30;45.40;;;;;;5042615;28;20202;-71
2022/12/18 10:29:43;;;;;;;6.25;4.65;;;17.30;45.40;;;;;;5053464;28;20258;-72
2022/12/18 10:32:17;;;;;;;4.65;4.25;;;17.40;45.50;;;;;;5036932;28;20886;-70
2022/12/18 10:34:45;;;;;;;4.95;4.30;;;17.40;45.40;;;;;;5053472;28;20202;-70
2022/12/18 10:37:15;;;;;;;4.95;4.50;;;17.40;45.40;;;;;;5054908;28;20611;-70
2022/12/18 10:39:40;;;;;;;4.80;4.38;;;17.40;45.40;;;;;;5043656;28;20179;-70
2022/12/18 10:42:14;;;;;;;5.05;4.57;;;17.40;45.50;;;;;;5074794;28;20224;-70
2022/12/18 10:44:40;;;;;;;5.07;4.60;;;17.40;45.50;;;;;;5074124;28;20639;-72
2022/12/18 10:47:10;;;;;;;5.38;4.85;;;17.40;45.40;;;;;;5073821;28;20536;-72
2022/12/18 10:49:36;;;;;;;4.80;4.38;;;17.40;45.50;;;;;;5074546;28;20540;-72
2022/12/18 10:52:14;;;;;;;4.60;4.20;;;17.40;45.50;;;;;;5074503;28;20602;-71
2022/12/18 10:54:39;;;;;;;4.72;4.30;;;17.40;45.60;;;;;;5072067;28;20624;-70
2022/12/18 10:57:31;;;;;;;4.93;4.30;;;17.40;45.50;;;;;;5074332;28;20174;-71
2022/12/18 10:59:58;;;;;;;6.55;5.03;;;17.30;45.40;;;;;;5074011;28;20199;-71
2022/12/18 11:02:37;;;;;;;4.40;4.00;;;17.30;45.60;;;;;;5074713;28;20210;-71
2022/12/18 11:05:23;;;;;;;4.43;3.72;;;17.20;45.50;;;;;;5066865;28;20265;-74
2022/12/18 11:07:53;;;;;;;4.93;4.10;;;17.10;45.70;;;;;;5052894;28;20178;-73
2022/12/18 11:10:21;;;;;;;4.55;4.15;;;17.10;45.90;;;;;;5056410;28;20197;-73
2022/12/18 11:12:47;;;;;;;4.75;4.10;;;17.10;46.10;;;;;;5053831;28;20175;-79
2022/12/18 11:15:26;;;;;;;4.30;3.90;;;17.10;46.20;;;;;;5053414;28;20572;-76
2022/12/18 11:17:51;;;;;;;5.00;4.50;;;17.10;46.30;;;;;;5052776;28;20167;-74
2022/12/18 11:20:30;;;;;;;6.25;4.55;;;17.10;46.20;;;;;;5054018;28;20169;-75
2022/12/18 11:23:04;;;;;;;5.72;4.30;;;17.10;46.30;;;;;;5036583;28;20187;-73
2022/12/18 11:25:30;;;;;;;5.07;4.20;;;17.20;46.30;;;;;;5054670;28;20189;-73
2022/12/18 11:28:24;;;;;;;9.18;4.80;;;17.20;46.30;;;;;;5052817;28;20183;-76
2022/12/18 11:30:50;;;;;;;5.70;4.57;;;17.30;46.20;;;;;;5052259;28;21062;-73
2022/12/18 11:33:20;;;;;;;7.65;4.68;;;17.30;46.30;;;;;;5035815;28;20170;-75
2022/12/18 11:35:56;;;;;;;6.97;5.18;;;17.30;46.20;;;;;;5035484;28;20210;-74
2022/12/18 11:38:35;;;;;;;5.68;4.63;;;17.40;46.20;;;;;;5036182;28;20228;-76
2022/12/18 11:41:07;;;;;;;6.82;4.50;;;17.40;46.20;;;;;;5070888;28;20547;-71
2022/12/18 11:43:45;;;;;;;8.93;5.45;;;17.40;46.20;;;;;;5055229;28;20174;-73
2022/12/18 11:46:17;;;;;;;6.78;4.75;;;17.50;46.90;;;;;;5072351;28;20175;-73
2022/12/18 11:48:58;;;;;;;8.85;5.50;;;17.50;46.30;;;;;;5055872;28;20733;-73
2022/12/18 11:51:38;;;;;;;6.25;4.57;;;17.50;46.20;;;;;;5072632;28;20182;-68
2022/12/18 11:54:12;;;;;;;7.00;4.72;;;17.50;46.20;;;;;;5056368;28;20210;-74
2022/12/18 11:57:03;;;;;;;7.13;5.72;;;17.50;46.30;;;;;;5054103;28;20286;-74
2022/12/18 11:59:38;;;;;;;8.57;4.97;;;17.50;46.30;;;;;;5066487;28;20189;-72
2022/12/18 12:02:30;;;;;;;8.50;5.00;;;17.50;46.30;;;;;;5072175;28;20193;-72
2022/12/18 12:05:05;;;;;;;11.23;5.03;;;17.50;46.30;;;;;;5071440;28;20555;-71
2022/12/18 12:07:57;;;;;;;7.97;5.05;;;17.50;46.30;;;;;;5072920;28;20170;-69
2022/12/18 12:10:42;;;;;;;7.80;5.10;;;17.60;46.40;;;;;;5071194;28;20524;-71
2022/12/18 12:13:20;;;;;;;12.50;5.78;;;17.60;46.30;;;;;;5072767;28;20299;-72
2022/12/18 12:16:06;;;;;;;9.52;5.53;;;17.90;46.10;;;;;;5072899;28;20245;-71
2022/12/18 12:18:35;;;;;;;8.73;5.25;;;18.00;45.80;;;;;;5071089;28;20193;-71
2022/12/18 12:21:06;;;;;;;9.85;5.25;;;18.20;45.80;;;;;;5072958;28;20180;-69
2022/12/18 12:23:50;;;;;;;9.65;5.25;;;18.40;45.50;;;;;;5072487;28;20182;-69
2022/12/18 12:26:53;;;;;;;8.70;4.32;;;18.50;45.30;;;;;;5072022;28;20257;-68
2022/12/18 12:29:37;;;;;;;10.30;4.93;;;18.50;45.30;;;;;;5072822;28;20170;-70
2022/12/18 12:32:37;;;;;;;6.38;4.38;;;18.70;45.10;;;;;;5071992;28;20640;-71
2022/12/18 12:35:22;;;;;;;6.82;4.70;;;18.70;45.10;;;;;;5071460;28;20248;-70
2022/12/18 12:38:45;;;;;;;9.48;4.80;;;18.70;45.20;;;;;;5071201;28;20597;-70
2022/12/18 12:43:12;;;;;;;8.40;5.13;;;18.80;45.00;;;;;;5030662;28;20693;-70
2022/12/18 12:44:01;;;;;;;6.78;4.53;;;18.80;45.00;;;;;;5038194;28;20241;-71
2022/12/18 12:46:27;;;;;;;5.70;4.30;;;18.90;45.00;;;;;;5050910;28;20202;-70
2022/12/18 12:48:54;;;;;;;5.72;4.00;;;19.00;44.90;;;;;;5051464;28;20198;-71
2022/12/18 12:51:23;;;;;;;8.55;4.50;;;18.90;45.00;;;;;;5051367;28;20641;-72